createdAt,value
2022-09-28T00:00:16.690Z,13.35
2022-09-28T00:05:19.288Z,13.36
2022-09-28T00:10:24.754Z,13.29
2022-09-28T00:15:27.077Z,13.26
2022-09-28T00:20:29.516Z,13.21
2022-09-28T00:25:32.301Z,13.26
2022-09-28T00:30:34.607Z,13.35
2022-09-28T00:35:36.971Z,13.31
2022-09-28T00:40:39.390Z,13.23
2022-09-28T00:45:42.417Z,13.10
2022-09-28T00:50:46.049Z,13.24
2022-09-28T00:55:54.214Z,13.39
2022-09-28T01:00:58.325Z,13.32
2022-09-28T01:06:02.917Z,13.32
2022-09-28T01:11:05.747Z,13.20
2022-09-28T01:16:15.515Z,13.30
2022-09-28T01:21:23.547Z,13.27
2022-09-28T01:26:25.831Z,13.22
2022-09-28T01:31:31.149Z,13.27
2022-09-28T01:36:45.758Z,13.22
2022-09-28T01:41:51.633Z,13.34
2022-09-28T01:46:54.514Z,13.25
2022-09-28T01:52:13.050Z,13.29
2022-09-28T01:57:23.589Z,13.32
2022-09-28T02:02:29.701Z,13.28
2022-09-28T02:07:55.883Z,13.27
2022-09-28T02:13:11.294Z,13.20
2022-09-28T02:18:13.959Z,13.18
2022-09-28T02:23:17.078Z,13.16
2022-09-28T02:28:19.651Z,13.23
2022-09-28T02:33:32.197Z,13.33
2022-09-28T02:38:34.808Z,13.14
2022-09-28T02:44:14.338Z,13.12
2022-09-28T02:49:29.324Z,13.07
2022-09-28T02:55:22.431Z,13.10
2022-09-28T03:00:25.195Z,13.09
2022-09-28T03:05:47.554Z,12.91
2022-09-28T03:10:57.192Z,12.65
2022-09-28T03:16:14.234Z,12.72
2022-09-28T03:21:18.599Z,12.86
2022-09-28T03:26:21.057Z,12.53
2022-09-28T03:31:23.926Z,12.62
2022-09-28T03:36:26.827Z,12.81
2022-09-28T03:41:29.276Z,12.68
2022-09-28T03:46:31.634Z,12.43
2022-09-28T03:51:39.612Z,12.54
2022-09-28T03:56:42.172Z,12.30
2022-09-28T04:01:44.614Z,12.19
2022-09-28T04:06:47.109Z,12.37
2022-09-28T04:12:03.462Z,12.21
2022-09-28T04:17:07.961Z,12.44
2022-09-28T04:22:10.438Z,12.29
2022-09-28T04:27:32.057Z,12.50
2022-09-28T04:32:36.378Z,12.45
2022-09-28T04:37:40.405Z,12.31
2022-09-28T04:42:42.903Z,12.47
2022-09-28T04:47:45.353Z,12.44
2022-09-28T04:53:10.686Z,12.62
2022-09-28T04:58:13.058Z,12.74
2022-09-28T05:03:15.623Z,12.50
2022-09-28T05:08:50.541Z,12.73
2022-09-28T05:13:53.026Z,12.62
2022-09-28T05:18:57.028Z,12.61
2022-09-28T05:23:59.730Z,12.75
2022-09-28T05:29:02.427Z,12.64
2022-09-28T05:34:31.246Z,12.76
2022-09-28T05:39:33.699Z,12.73
2022-09-28T05:44:38.523Z,12.51
2022-09-28T05:49:41.217Z,12.40
2022-09-28T05:54:43.644Z,12.50
2022-09-28T05:59:46.500Z,12.64
2022-09-28T06:04:51.384Z,12.31
2022-09-28T06:09:54.050Z,12.56
2022-09-28T06:15:11.219Z,12.57
2022-09-28T06:20:13.817Z,12.50
2022-09-28T06:25:39.960Z,12.64
2022-09-28T06:30:43.364Z,12.78
2022-09-28T06:35:48.346Z,12.79
2022-09-28T06:40:50.839Z,12.67
2022-09-28T06:45:54.260Z,12.66
2022-09-28T06:51:07.178Z,12.66
2022-09-28T06:56:18.261Z,12.96
2022-09-28T07:01:20.965Z,12.83
2022-09-28T07:06:59.861Z,12.98
2022-09-28T07:12:21.907Z,12.79
2022-09-28T07:17:50.676Z,13.10
2022-09-28T07:23:15.054Z,13.19
2022-09-28T07:28:43.469Z,13.22
2022-09-28T07:34:14.828Z,13.37
2022-09-28T07:39:57.493Z,13.32
2022-09-28T07:45:00.172Z,13.48
2022-09-28T07:50:02.661Z,13.71
2022-09-28T07:55:21.525Z,14.28
2022-09-28T08:00:47.657Z,14.56
2022-09-28T08:05:50.209Z,14.60
2022-09-28T08:10:53.242Z,14.59
2022-09-28T08:16:15.973Z,14.25
2022-09-28T08:21:45.870Z,13.70
2022-09-28T08:26:49.580Z,13.14
2022-09-28T08:31:53.320Z,13.42
2022-09-28T08:37:11.198Z,14.10
2022-09-28T08:42:32.055Z,14.12
2022-09-28T08:48:49.003Z,14.25
2022-09-28T08:54:36.231Z,13.78
2022-09-28T08:59:51.440Z,13.53
2022-09-28T09:05:08.276Z,14.25
2022-09-28T09:10:46.027Z,14.34
2022-09-28T09:16:20.410Z,14.01
2022-09-28T09:22:02.357Z,14.12
2022-09-28T09:27:06.988Z,14.65
2022-09-28T09:32:33.923Z,15.06
2022-09-28T09:38:11.552Z,15.16
2022-09-28T09:43:31.543Z,15.08
2022-09-28T09:49:01.360Z,15.49
2022-09-28T09:54:10.794Z,15.42
2022-09-28T09:59:18.159Z,14.71
2022-09-28T10:04:52.827Z,14.30
2022-09-28T10:10:02.503Z,14.54
2022-09-28T10:15:24.555Z,15.13
2022-09-28T10:20:54.727Z,14.98
2022-09-28T10:26:25.039Z,14.65
2022-09-28T10:31:42.593Z,14.31
2022-09-28T10:37:01.565Z,14.68
2022-09-28T10:42:12.887Z,14.67
2022-09-28T10:47:18.023Z,15.17
2022-09-28T10:52:36.788Z,15.23
2022-09-28T10:57:40.901Z,14.75
2022-09-28T11:02:45.043Z,14.82
2022-09-28T11:07:57.973Z,15.40
2022-09-28T11:13:09.629Z,15.66
2022-09-28T11:18:31.617Z,15.39
2022-09-28T11:23:41.144Z,15.34
2022-09-28T11:28:56.146Z,15.11
2022-09-28T11:34:17.407Z,15.62
2022-09-28T11:39:59.142Z,15.94
2022-09-28T11:45:31.481Z,15.45
2022-09-28T11:50:48.297Z,15.67
2022-09-28T11:55:57.752Z,15.92
2022-09-28T12:01:19.123Z,16.24
2022-09-28T12:07:02.407Z,15.88
2022-09-28T12:12:25.599Z,16.13
2022-09-28T12:17:39.668Z,16.42
2022-09-28T12:22:46.748Z,16.48
2022-09-28T12:27:54.151Z,17.37
2022-09-28T12:33:05.005Z,17.27
2022-09-28T12:38:45.998Z,17.20
2022-09-28T12:44:37.882Z,16.86
2022-09-28T12:50:37.507Z,16.73
2022-09-28T12:55:45.828Z,16.35
2022-09-28T13:01:01.954Z,16.42
2022-09-28T13:06:48.538Z,16.35
2022-09-28T13:12:16.111Z,16.21
2022-09-28T13:17:32.803Z,16.08
2022-09-28T13:22:35.097Z,15.95
2022-09-28T13:27:45.665Z,15.64
2022-09-28T13:32:50.008Z,15.98
2022-09-28T13:38:17.546Z,16.33
2022-09-28T13:43:29.550Z,16.24
2022-09-28T13:49:02.430Z,16.02
2022-09-28T13:54:26.222Z,16.13
2022-09-28T13:59:30.426Z,16.95
2022-09-28T14:05:00.443Z,16.49
2022-09-28T14:10:21.029Z,16.24
2022-09-28T14:15:29.459Z,15.99
2022-09-28T14:20:32.351Z,15.77
2022-09-28T14:25:47.619Z,15.78
2022-09-28T14:30:53.461Z,15.79
2022-09-28T14:36:02.148Z,15.95
2022-09-28T14:41:09.562Z,16.36
2022-09-28T14:46:12.099Z,17.13
2022-09-28T14:51:26.616Z,17.36
2022-09-28T14:56:32.764Z,16.66
2022-09-28T15:01:36.276Z,16.23
2022-09-28T15:06:49.009Z,15.98
2022-09-28T15:11:55.571Z,15.97
2022-09-28T15:17:04.324Z,15.73
2022-09-28T15:22:17.898Z,15.61
2022-09-28T15:27:20.560Z,15.53
2022-09-28T15:32:31.819Z,15.28
2022-09-28T15:37:40.419Z,14.88
2022-09-28T15:42:45.342Z,14.67
2022-09-28T15:47:47.893Z,14.43
2022-09-28T15:53:06.876Z,14.21
2022-09-28T15:58:24.412Z,14.02
2022-09-28T16:03:31.270Z,13.88
2022-09-28T16:08:43.669Z,13.78
2022-09-28T16:13:48.699Z,13.72
2022-09-28T16:18:51.987Z,13.65
2022-09-28T16:23:58.512Z,13.59
2022-09-28T16:29:02.188Z,13.38
2022-09-28T16:34:11.372Z,13.38
2022-09-28T16:39:16.413Z,13.26
2022-09-28T16:44:36.918Z,13.30
2022-09-28T16:49:40.097Z,13.38
2022-09-28T16:55:01.366Z,13.31
2022-09-28T17:00:04.268Z,13.46
2022-09-28T17:05:07.242Z,13.63
2022-09-28T17:10:50.043Z,13.64
2022-09-28T17:16:10.536Z,13.59
2022-09-28T17:21:18.962Z,13.75
2022-09-28T17:26:26.900Z,13.65
2022-09-28T17:31:30.641Z,13.66
2022-09-28T17:36:32.961Z,13.57
2022-09-28T17:41:37.294Z,13.68
2022-09-28T17:46:48.654Z,13.65
2022-09-28T17:51:52.961Z,13.65
2022-09-28T17:56:55.255Z,13.80
2022-09-28T18:02:01.539Z,13.79
2022-09-28T18:07:04.648Z,13.62
2022-09-28T18:12:07.201Z,13.67
2022-09-28T18:17:09.797Z,13.57
2022-09-28T18:22:12.092Z,13.66
2022-09-28T18:27:14.554Z,13.59
2022-09-28T18:32:16.913Z,13.59
2022-09-28T18:37:19.424Z,13.65
2022-09-28T18:42:21.839Z,13.66
2022-09-28T18:47:24.653Z,13.35
2022-09-28T18:52:29.051Z,13.16
2022-09-28T18:57:33.667Z,12.72
2022-09-28T19:02:36.795Z,12.56
2022-09-28T19:07:39.126Z,12.43
2022-09-28T19:12:41.591Z,12.51
2022-09-28T19:17:46.447Z,12.27
2022-09-28T19:22:51.568Z,11.86
2022-09-28T19:27:54.001Z,11.67
2022-09-28T19:32:56.380Z,11.66
2022-09-28T19:37:58.762Z,11.60
2022-09-28T19:43:01.893Z,11.54
2022-09-28T19:48:04.275Z,11.15
2022-09-28T19:53:07.529Z,11.28
2022-09-28T19:58:10.148Z,11.41
2022-09-28T20:03:12.468Z,11.16
2022-09-28T20:08:15.530Z,10.95
2022-09-28T20:13:18.032Z,10.85
2022-09-28T20:18:20.830Z,10.83
2022-09-28T20:23:23.211Z,10.96
2022-09-28T20:28:26.953Z,11.13
2022-09-28T20:33:31.074Z,11.08
2022-09-28T20:38:33.732Z,11.07
2022-09-28T20:43:36.049Z,11.08
2022-09-28T20:48:38.434Z,11.38
2022-09-28T20:53:42.041Z,11.29
2022-09-28T20:58:44.734Z,11.23
2022-09-28T21:03:48.244Z,11.28
2022-09-28T21:08:50.933Z,11.32
2022-09-28T21:13:54.929Z,11.56
2022-09-28T21:18:57.829Z,11.36
2022-09-28T21:24:00.218Z,11.37
2022-09-28T21:29:02.529Z,11.27
2022-09-28T21:34:05.233Z,11.14
2022-09-28T21:39:10.370Z,11.11
2022-09-28T21:44:13.041Z,11.09
2022-09-28T21:49:15.419Z,11.01
2022-09-28T21:54:17.796Z,10.91
2022-09-28T21:59:20.225Z,10.86
2022-09-28T22:04:22.606Z,10.82
2022-09-28T22:09:25.029Z,10.74
2022-09-28T22:14:27.509Z,10.71
2022-09-28T22:19:29.863Z,10.82
2022-09-28T22:24:32.251Z,10.96
2022-09-28T22:29:35.032Z,10.89
2022-09-28T22:34:37.514Z,10.93
2022-09-28T22:39:41.171Z,10.92
2022-09-28T22:44:43.681Z,10.91
2022-09-28T22:49:46.042Z,10.89
2022-09-28T22:54:51.223Z,10.85
2022-09-28T22:59:53.588Z,10.84
2022-09-28T23:04:56.007Z,10.82
2022-09-28T23:09:59.890Z,10.87
2022-09-28T23:15:02.786Z,10.89
2022-09-28T23:20:05.585Z,10.95
2022-09-28T23:25:08.342Z,10.92
2022-09-28T23:30:10.888Z,10.96
2022-09-28T23:35:14.512Z,10.82
2022-09-28T23:40:17.027Z,10.85
2022-09-28T23:45:19.442Z,10.81
2022-09-28T23:50:21.894Z,10.78
2022-09-28T23:55:24.298Z,10.85
